createdAt,value
2023-09-02T00:01:54.760Z,98230.53
2023-09-02T00:04:25.283Z,98228.97
2023-09-02T00:06:55.829Z,98228.19
2023-09-02T00:09:26.339Z,98231.56
2023-09-02T00:11:59.609Z,98225.88
2023-09-02T00:14:30.109Z,98235.97
2023-09-02T00:17:00.714Z,98239.38
2023-09-02T00:19:31.351Z,98229.31
2023-09-02T00:22:01.923Z,98246.63
2023-09-02T00:24:32.403Z,98238.78
2023-09-02T00:27:05.500Z,98243.31
2023-09-02T00:29:36.036Z,98245.72
2023-09-02T00:32:07.026Z,98241.00
2023-09-02T00:34:38.149Z,98243.56
2023-09-02T00:37:08.811Z,98245.53
2023-09-02T00:39:39.342Z,98238.28
2023-09-02T00:42:14.409Z,98241.84
2023-09-02T00:44:44.994Z,98244.81
2023-09-02T00:47:16.153Z,98244.22
2023-09-02T00:49:46.767Z,98243.66
2023-09-02T00:52:17.336Z,98244.66
2023-09-02T00:54:47.920Z,98243.09
2023-09-02T00:57:21.260Z,98246.63
2023-09-02T00:59:51.829Z,98242.69
2023-09-02T01:02:22.710Z,98243.88
2023-09-02T01:04:53.643Z,98247.25
2023-09-02T01:07:24.621Z,98245.47
2023-09-02T01:09:55.180Z,98240.78
2023-09-02T01:12:28.545Z,98244.31
2023-09-02T01:14:59.867Z,98234.09
2023-09-02T01:17:31.797Z,98234.16
2023-09-02T01:20:03.917Z,98245.75
2023-09-02T01:22:59.611Z,98248.34
2023-09-02T01:25:58.707Z,98246.78
2023-09-02T01:28:38.101Z,98250.34
2023-09-02T01:31:11.716Z,98239.31
2023-09-02T01:33:44.222Z,98246.00
2023-09-02T01:36:18.574Z,98246.00
2023-09-02T01:38:50.215Z,98255.28
2023-09-02T01:41:20.975Z,98262.97
2023-09-02T01:43:55.006Z,98256.25
2023-09-02T01:46:26.290Z,98251.13
2023-09-02T01:48:57.112Z,98254.69
2023-09-02T01:51:29.158Z,98257.06
2023-09-02T01:53:59.999Z,98262.56
2023-09-02T01:56:31.438Z,98266.31
2023-09-02T01:59:04.621Z,98259.81
2023-09-02T02:01:35.664Z,98261.38
2023-09-02T02:04:14.596Z,98262.16
2023-09-02T02:06:46.819Z,98271.25
2023-09-02T02:09:23.972Z,98267.31
2023-09-02T02:11:52.725Z,98267.72
2023-09-02T02:14:25.846Z,98267.72
2023-09-02T02:16:56.453Z,98266.16
2023-09-02T02:19:26.995Z,98261.03
2023-09-02T02:21:58.930Z,98266.16
2023-09-02T02:24:29.951Z,98274.81
2023-09-02T02:27:00.831Z,98258.69
2023-09-02T02:29:33.999Z,98270.13
2023-09-02T02:32:04.728Z,98271.47
2023-09-02T02:34:36.046Z,98278.59
2023-09-02T02:37:06.537Z,98270.69
2023-09-02T02:39:37.878Z,98272.09
2023-09-02T02:42:08.636Z,98268.34
2023-09-02T02:44:41.825Z,98265.63
2023-09-02T02:47:12.401Z,98269.34
2023-09-02T02:49:43.105Z,98270.94
2023-09-02T02:52:13.650Z,98265.81
2023-09-02T02:54:44.534Z,98266.25
2023-09-02T02:57:15.081Z,98267.41
2023-09-02T02:59:48.521Z,98262.31
2023-09-02T03:02:19.190Z,98267.41
2023-09-02T03:04:49.938Z,98267.81
2023-09-02T03:07:20.831Z,98267.44
2023-09-02T03:09:51.554Z,98266.44
2023-09-02T03:12:22.119Z,98268.41
2023-09-02T03:14:56.378Z,98273.72
2023-09-02T03:17:27.039Z,98279.63
2023-09-02T03:19:57.654Z,98277.69
2023-09-02T03:22:30.055Z,98278.66
2023-09-02T03:25:00.687Z,98283.56
2023-09-02T03:27:32.705Z,98287.72
2023-09-02T03:30:06.000Z,98292.81
2023-09-02T03:32:36.804Z,98277.69
2023-09-02T03:35:09.237Z,98292.25
2023-09-02T03:37:39.994Z,98289.09
2023-09-02T03:40:12.277Z,98291.81
2023-09-02T03:42:42.890Z,98283.97
2023-09-02T03:45:16.208Z,98282.41
2023-09-02T03:47:46.928Z,98276.91
2023-09-02T03:50:17.553Z,98284.56
2023-09-02T03:52:48.333Z,98272.56
2023-09-02T03:55:18.992Z,98276.50
2023-09-02T03:57:49.625Z,98281.63
2023-09-02T04:00:24.553Z,98281.81
2023-09-02T04:02:58.920Z,98281.22
2023-09-02T04:05:29.529Z,98284.75
2023-09-02T04:08:00.013Z,98279.63
2023-09-02T04:10:32.321Z,98288.50
2023-09-02T04:13:02.920Z,98290.28
2023-09-02T04:15:36.587Z,98290.06
2023-09-02T04:18:08.018Z,98290.84
2023-09-02T04:20:39.676Z,98291.84
2023-09-02T04:23:10.260Z,98297.53
2023-09-02T04:25:49.020Z,98292.22
2023-09-02T04:28:21.350Z,98297.72
2023-09-02T04:30:57.985Z,98298.31
2023-09-02T04:33:31.666Z,98294.56
2023-09-02T04:36:04.975Z,98305.19
2023-09-02T04:38:39.355Z,98316.03
2023-09-02T04:41:10.499Z,98312.84
2023-09-02T04:43:42.574Z,98310.31
2023-09-02T04:46:17.277Z,98312.09
2023-09-02T04:48:50.224Z,98321.16
2023-09-02T04:51:23.686Z,98318.19
2023-09-02T04:53:54.514Z,98314.66
2023-09-02T04:56:25.539Z,98316.03
2023-09-02T04:58:57.126Z,98316.44
2023-09-02T05:01:31.889Z,98315.63
2023-09-02T05:04:03.626Z,98323.31
2023-09-02T05:06:34.377Z,98333.75
2023-09-02T05:09:07.691Z,98333.53
2023-09-02T05:11:38.227Z,98329.22
2023-09-02T05:14:08.927Z,98337.66
2023-09-02T05:16:42.043Z,98344.13
2023-09-02T05:19:13.290Z,98346.09
2023-09-02T05:21:43.988Z,98344.53
2023-09-02T05:24:14.572Z,98345.25
2023-09-02T05:26:46.279Z,98343.97
2023-09-02T05:29:17.736Z,98348.63
2023-09-02T05:31:50.939Z,98345.66
2023-09-02T05:34:21.559Z,98348.94
2023-09-02T05:36:52.097Z,98355.03
2023-09-02T05:39:22.620Z,98351.97
2023-09-02T05:41:53.144Z,98353.25
2023-09-02T05:44:23.702Z,98352.81
2023-09-02T05:46:56.813Z,98348.69
2023-09-02T05:49:27.470Z,98349.31
2023-09-02T05:51:57.924Z,98358.22
2023-09-02T05:54:28.492Z,98363.66
2023-09-02T05:56:58.966Z,98360.63
2023-09-02T05:59:30.665Z,98365.91
2023-09-02T06:02:04.084Z,98357.47
2023-09-02T06:04:34.639Z,98363.50
2023-09-02T06:07:05.154Z,98371.94
2023-09-02T06:09:35.650Z,98366.00
2023-09-02T06:12:06.521Z,98370.78
2023-09-02T06:14:37.246Z,98367.81
2023-09-02T06:17:10.430Z,98367.34
2023-09-02T06:19:41.003Z,98372.41
2023-09-02T06:22:11.472Z,98369.56
2023-09-02T06:24:41.968Z,98371.31
2023-09-02T06:27:12.453Z,98366.09
2023-09-02T06:29:46.855Z,98370.31
2023-09-02T06:32:20.004Z,98370.19
2023-09-02T06:34:51.392Z,98363.59
2023-09-02T06:37:21.970Z,98374.41
2023-09-02T06:39:56.520Z,98370.53
2023-09-02T06:42:27.676Z,98358.44
2023-09-02T06:44:58.202Z,98369.66
2023-09-02T06:47:31.348Z,98378.44
2023-09-02T06:50:01.953Z,98382.56
2023-09-02T06:52:32.496Z,98379.16
2023-09-02T06:55:05.066Z,98383.31
2023-09-02T06:57:35.570Z,98387.72
2023-09-02T07:00:06.482Z,98385.13
2023-09-02T07:02:39.675Z,98389.38
2023-09-02T07:05:10.722Z,98388.25
2023-09-02T07:07:42.339Z,98392.63
2023-09-02T07:10:13.948Z,98389.53
2023-09-02T07:12:44.476Z,98392.50
2023-09-02T07:15:15.101Z,98391.66
2023-09-02T07:17:48.346Z,98391.78
2023-09-02T07:20:18.896Z,98395.09
2023-09-02T07:22:49.396Z,98392.78
2023-09-02T07:25:19.992Z,98388.28
2023-09-02T07:27:50.509Z,98392.59
2023-09-02T07:30:21.313Z,98392.97
2023-09-02T07:32:54.472Z,98389.91
2023-09-02T07:35:24.998Z,98396.72
2023-09-02T07:37:55.533Z,98407.25
2023-09-02T07:40:26.322Z,98404.50
2023-09-02T07:42:56.861Z,98402.88
2023-09-02T07:45:27.476Z,98394.41
2023-09-02T07:48:00.701Z,98407.53
2023-09-02T07:50:31.417Z,98407.16
2023-09-02T07:53:02.002Z,98406.88
2023-09-02T07:55:32.505Z,98411.84
2023-09-02T07:58:03.197Z,98413.13
2023-09-02T08:00:33.863Z,98415.25
2023-09-02T08:03:07.904Z,98412.91
2023-09-02T08:05:42.169Z,98413.69
2023-09-02T08:08:12.684Z,98412.78
2023-09-02T08:10:43.336Z,98409.69
2023-09-02T08:13:14.435Z,98402.84
2023-09-02T08:15:44.986Z,98400.53
2023-09-02T08:18:18.234Z,98401.19
2023-09-02T08:20:48.742Z,98406.19
2023-09-02T08:23:19.532Z,98408.00
2023-09-02T08:25:50.243Z,98407.59
2023-09-02T08:28:20.753Z,98404.31
2023-09-02T08:30:51.727Z,98399.38
2023-09-02T08:33:24.868Z,98401.13
2023-09-02T08:35:55.362Z,98404.78
2023-09-02T08:38:25.924Z,98404.41
2023-09-02T08:40:58.625Z,98410.75
2023-09-02T08:43:31.333Z,98406.94
2023-09-02T08:46:03.766Z,98412.78
2023-09-02T08:48:40.156Z,98416.47
2023-09-02T08:51:12.807Z,98413.44
2023-09-02T08:53:44.533Z,98407.75
2023-09-02T08:56:16.023Z,98414.94
2023-09-02T08:58:47.018Z,98421.63
2023-09-02T09:01:22.044Z,98418.97
2023-09-02T09:03:59.232Z,98420.00
2023-09-02T09:06:32.555Z,98419.78
2023-09-02T09:09:03.850Z,98424.41
2023-09-02T09:11:39.039Z,98426.44
2023-09-02T09:14:13.655Z,98429.66
2023-09-02T09:16:46.872Z,98423.72
2023-09-02T09:19:20.580Z,98427.91
2023-09-02T09:21:51.273Z,98433.03
2023-09-02T09:24:21.809Z,98426.28
2023-09-02T09:26:53.417Z,98423.38
2023-09-02T09:29:24.514Z,98421.31
2023-09-02T09:32:12.733Z,98425.50
2023-09-02T09:34:47.438Z,98422.72
2023-09-02T09:37:19.074Z,98420.81
2023-09-02T09:39:52.905Z,98431.03
2023-09-02T09:42:37.741Z,98428.84
2023-09-02T09:45:10.325Z,98430.13
2023-09-02T09:47:44.031Z,98424.84
2023-09-02T09:50:21.816Z,98421.34
2023-09-02T09:53:10.903Z,98416.94
2023-09-02T09:55:42.013Z,98413.84
2023-09-02T09:58:12.726Z,98419.00
2023-09-02T10:00:43.257Z,98416.91
2023-09-02T10:03:13.894Z,98415.06
2023-09-02T10:05:47.350Z,98407.72
2023-09-02T10:08:18.022Z,98403.19
2023-09-02T10:10:48.559Z,98412.06
2023-09-02T10:13:19.912Z,98401.75
2023-09-02T10:15:51.861Z,98403.66
2023-09-02T10:18:24.747Z,98408.41
2023-09-02T10:20:58.584Z,98408.75
2023-09-02T10:23:29.271Z,98403.81
2023-09-02T10:26:09.052Z,98410.25
2023-09-02T10:28:42.169Z,98406.00
2023-09-02T10:31:18.821Z,98404.78
2023-09-02T10:33:53.645Z,98408.19
2023-09-02T10:36:30.816Z,98405.03
2023-09-02T10:39:06.682Z,98402.88
2023-09-02T10:41:38.197Z,98408.19
2023-09-02T10:44:09.663Z,98401.72
2023-09-02T10:46:41.751Z,98406.03
2023-09-02T10:49:12.416Z,98395.56
2023-09-02T10:51:46.575Z,98395.97
2023-09-02T10:54:17.122Z,98393.31
2023-09-02T10:56:47.622Z,98382.09
2023-09-02T10:59:32.962Z,98385.63
2023-09-02T11:02:03.620Z,98390.00
2023-09-02T11:05:01.412Z,98387.00
2023-09-02T11:07:35.326Z,98385.19
2023-09-02T11:10:06.821Z,98385.81
2023-09-02T11:12:37.708Z,98381.44
2023-09-02T11:15:19.988Z,98379.22
2023-09-02T11:17:50.682Z,98376.13
2023-09-02T11:20:25.188Z,98378.91
2023-09-02T11:23:01.013Z,98373.84
2023-09-02T11:25:42.883Z,98374.88
2023-09-02T11:28:29.868Z,98370.06
2023-09-02T11:31:11.941Z,98384.22
2023-09-02T11:33:43.825Z,98375.34
2023-09-02T11:36:16.591Z,98377.00
2023-09-02T11:38:49.791Z,98368.84
2023-09-02T11:41:29.377Z,98374.59
2023-09-02T11:43:59.913Z,98372.28
2023-09-02T11:46:30.468Z,98370.34
2023-09-02T11:49:01.053Z,98380.72
2023-09-02T11:51:31.710Z,98374.69
2023-09-02T11:54:05.882Z,98382.09
2023-09-02T11:56:37.748Z,98381.63
2023-09-02T11:59:08.309Z,98381.84
2023-09-02T12:01:38.830Z,98389.09
2023-09-02T12:04:09.557Z,98388.00
2023-09-02T12:06:40.079Z,98390.63
2023-09-02T12:09:13.241Z,98388.38
2023-09-02T12:11:44.427Z,98398.00
2023-09-02T12:14:15.039Z,98387.81
2023-09-02T12:16:45.620Z,98395.38
2023-09-02T12:19:16.830Z,98391.31
2023-09-02T12:21:47.445Z,98394.13
2023-09-02T12:24:21.247Z,98392.19
2023-09-02T12:26:52.682Z,98385.28
2023-09-02T12:29:24.809Z,98389.84
2023-09-02T12:31:56.270Z,98387.81
2023-09-02T12:34:27.282Z,98381.03
2023-09-02T12:36:57.756Z,98377.50
2023-09-02T12:39:31.738Z,98377.91
2023-09-02T12:42:02.278Z,98388.16
2023-09-02T12:44:32.781Z,98383.81
2023-09-02T12:47:04.008Z,98387.00
2023-09-02T12:49:35.476Z,98386.88
2023-09-02T12:52:06.236Z,98388.59
2023-09-02T12:54:39.339Z,98390.81
2023-09-02T12:57:09.826Z,98389.81
2023-09-02T12:59:40.385Z,98391.94
2023-09-02T13:02:10.995Z,98393.22
2023-09-02T13:04:41.551Z,98389.97
2023-09-02T13:07:12.278Z,98395.75
2023-09-02T13:09:45.362Z,98405.44
2023-09-02T13:12:16.462Z,98394.41
2023-09-02T13:14:47.230Z,98399.03
2023-09-02T13:17:19.209Z,98399.44
2023-09-02T13:19:50.099Z,98407.03
2023-09-02T13:22:20.765Z,98409.84
2023-09-02T13:24:55.687Z,98405.97
2023-09-02T13:27:29.427Z,98402.00
2023-09-02T13:30:00.302Z,98405.97
2023-09-02T13:32:33.212Z,98404.94
2023-09-02T13:35:16.102Z,98411.56
2023-09-02T13:37:48.684Z,98407.41
2023-09-02T13:40:46.170Z,98406.16
2023-09-02T13:43:21.803Z,98401.13
2023-09-02T13:45:53.550Z,98402.91
2023-09-02T13:48:26.599Z,98411.94
2023-09-02T13:50:58.627Z,98418.84
2023-09-02T13:53:29.153Z,98416.81
2023-09-02T13:56:02.875Z,98420.50
2023-09-02T13:58:39.144Z,98427.16
2023-09-02T14:01:09.674Z,98417.84
2023-09-02T14:03:40.962Z,98422.66
2023-09-02T14:06:11.653Z,98416.22
2023-09-02T14:08:45.759Z,98413.94
2023-09-02T14:11:20.756Z,98424.03
2023-09-02T14:13:52.571Z,98423.97
2023-09-02T14:16:23.399Z,98429.75
2023-09-02T14:18:54.081Z,98418.69
2023-09-02T14:21:24.529Z,98421.25
2023-09-02T14:23:55.039Z,98417.34
2023-09-02T14:26:31.314Z,98421.16
2023-09-02T14:29:01.970Z,98422.81
2023-09-02T14:31:33.256Z,98416.38
2023-09-02T14:34:03.737Z,98423.56
2023-09-02T14:36:34.271Z,98417.78
2023-09-02T14:39:04.820Z,98422.72
2023-09-02T14:41:37.921Z,98421.34
2023-09-02T14:44:08.465Z,98420.19
2023-09-02T14:46:39.094Z,98418.75
2023-09-02T14:49:09.672Z,98416.56
2023-09-02T14:51:40.157Z,98426.16
2023-09-02T14:54:10.888Z,98431.41
2023-09-02T14:56:47.013Z,98432.53
2023-09-02T14:59:21.787Z,98430.81
2023-09-02T15:01:53.422Z,98440.47
2023-09-02T15:04:24.662Z,98454.13
2023-09-02T15:06:55.604Z,98441.72
2023-09-02T15:09:32.074Z,98448.81
2023-09-02T15:12:05.701Z,98451.38
2023-09-02T15:14:37.992Z,98450.34
2023-09-02T15:17:08.767Z,98444.78
2023-09-02T15:19:39.405Z,98437.41
2023-09-02T15:22:09.922Z,98435.13
2023-09-02T15:24:40.485Z,98438.94
2023-09-02T15:27:14.172Z,98440.47
2023-09-02T15:29:46.233Z,98445.28
2023-09-02T15:32:16.703Z,98440.28
2023-09-02T15:34:51.025Z,98443.22
2023-09-02T15:37:24.973Z,98446.91
2023-09-02T15:40:01.815Z,98446.13
2023-09-02T15:42:37.038Z,98447.88
2023-09-02T15:45:08.113Z,98453.63
2023-09-02T15:47:40.070Z,98457.81
2023-09-02T15:50:11.615Z,98451.34
2023-09-02T15:52:42.139Z,98449.72
2023-09-02T15:55:12.957Z,98454.19
2023-09-02T15:57:46.104Z,98459.06
2023-09-02T16:00:17.148Z,98450.03
2023-09-02T16:02:47.754Z,98451.78
2023-09-02T16:05:18.781Z,98449.06
2023-09-02T16:07:51.305Z,98454.19
2023-09-02T16:10:22.170Z,98453.50
2023-09-02T16:12:55.247Z,98458.78
2023-09-02T16:15:26.797Z,98456.34
2023-09-02T16:17:57.423Z,98455.75
2023-09-02T16:20:28.016Z,98456.13
2023-09-02T16:22:58.506Z,98460.31
2023-09-02T16:25:29.038Z,98449.13
2023-09-02T16:28:02.125Z,98461.63
2023-09-02T16:30:32.720Z,98463.28
2023-09-02T16:33:04.695Z,98458.94
2023-09-02T16:35:36.517Z,98462.03
2023-09-02T16:38:07.034Z,98471.81
2023-09-02T16:40:37.621Z,98466.56
2023-09-02T16:43:10.947Z,98466.88
2023-09-02T16:45:42.832Z,98458.53
2023-09-02T16:48:16.777Z,98456.38
2023-09-02T16:50:50.441Z,98457.38
2023-09-02T16:53:21.549Z,98458.50
2023-09-02T16:56:03.502Z,98457.69
2023-09-02T16:58:37.876Z,98457.00
2023-09-02T17:01:09.562Z,98462.31
2023-09-02T17:03:40.345Z,98463.38
2023-09-02T17:06:10.858Z,98456.56
2023-09-02T17:08:41.489Z,98463.59
2023-09-02T17:11:12.023Z,98467.44
2023-09-02T17:13:45.136Z,98465.78
2023-09-02T17:16:16.014Z,98463.19
2023-09-02T17:18:46.802Z,98460.31
2023-09-02T17:21:18.799Z,98462.75
2023-09-02T17:23:49.403Z,98458.13
2023-09-02T17:26:20.066Z,98465.47
2023-09-02T17:28:53.296Z,98462.56
2023-09-02T17:31:23.970Z,98461.00
2023-09-02T17:33:54.511Z,98469.06
2023-09-02T17:36:25.260Z,98464.81
2023-09-02T17:38:55.814Z,98462.34
2023-09-02T17:41:26.470Z,98469.75
2023-09-02T17:43:59.538Z,98464.19
2023-09-02T17:46:30.239Z,98464.88
2023-09-02T17:49:00.747Z,98479.53
2023-09-02T17:51:31.364Z,98482.53
2023-09-02T17:54:01.854Z,98478.41
2023-09-02T17:56:32.399Z,98484.19
2023-09-02T17:59:05.511Z,98478.53
2023-09-02T18:01:36.018Z,98482.47
2023-09-02T18:04:06.592Z,98486.34
2023-09-02T18:06:37.201Z,98494.13
2023-09-02T18:09:08.132Z,98486.56
2023-09-02T18:11:38.692Z,98489.94
2023-09-02T18:14:12.010Z,98490.69
2023-09-02T18:16:42.554Z,98491.44
2023-09-02T18:19:13.108Z,98494.22
2023-09-02T18:21:43.710Z,98501.69
2023-09-02T18:24:14.391Z,98496.16
2023-09-02T18:26:44.910Z,98504.16
2023-09-02T18:29:18.196Z,98505.91
2023-09-02T18:31:48.687Z,98508.91
2023-09-02T18:34:19.211Z,98513.53
2023-09-02T18:36:49.719Z,98508.22
2023-09-02T18:39:22.291Z,98518.22
2023-09-02T18:41:52.851Z,98528.72
2023-09-02T18:44:25.940Z,98521.44
2023-09-02T18:46:56.786Z,98538.97
2023-09-02T18:49:27.377Z,98537.59
2023-09-02T18:51:57.962Z,98539.63
2023-09-02T18:54:28.667Z,98541.13
2023-09-02T18:56:59.308Z,98553.72
2023-09-02T18:59:32.483Z,98549.03
2023-09-02T19:02:03.049Z,98551.53
2023-09-02T19:04:33.633Z,98552.50
2023-09-02T19:07:04.138Z,98560.19
2023-09-02T19:09:35.233Z,98553.59
2023-09-02T19:12:05.907Z,98554.72
2023-09-02T19:14:39.157Z,98552.47
2023-09-02T19:17:09.757Z,98557.13
2023-09-02T19:19:40.335Z,98556.72
2023-09-02T19:22:10.921Z,98565.06
2023-09-02T19:24:41.646Z,98562.38
2023-09-02T19:27:12.317Z,98562.22
2023-09-02T19:29:48.454Z,98566.47
2023-09-02T19:32:19.046Z,98575.94
2023-09-02T19:34:49.765Z,98578.44
2023-09-02T19:37:20.471Z,98579.28
2023-09-02T19:39:59.356Z,98573.84
2023-09-02T19:42:30.050Z,98575.34
2023-09-02T19:45:03.315Z,98583.25
2023-09-02T19:47:34.123Z,98589.88
2023-09-02T19:50:05.501Z,98587.34
2023-09-02T19:52:36.771Z,98590.47
2023-09-02T19:55:08.172Z,98601.25
2023-09-02T19:57:38.824Z,98606.44
2023-09-02T20:00:13.912Z,98614.31
2023-09-02T20:02:45.054Z,98614.88
2023-09-02T20:05:15.682Z,98620.53
2023-09-02T20:07:46.224Z,98612.78
2023-09-02T20:10:17.522Z,98621.53
2023-09-02T20:12:49.765Z,98619.97
2023-09-02T20:15:22.952Z,98624.59
2023-09-02T20:17:53.740Z,98621.66
2023-09-02T20:20:25.470Z,98625.69
2023-09-02T20:22:56.340Z,98622.13
2023-09-02T20:25:26.939Z,98627.28
2023-09-02T20:27:57.442Z,98639.28
2023-09-02T20:30:30.552Z,98632.88
2023-09-02T20:33:01.051Z,98640.84
2023-09-02T20:35:31.584Z,98636.78
2023-09-02T20:38:02.722Z,98634.06
2023-09-02T20:40:38.433Z,98633.06
2023-09-02T20:43:10.357Z,98631.34
2023-09-02T20:45:47.596Z,98639.53
2023-09-02T20:48:18.468Z,98647.94
2023-09-02T20:50:49.868Z,98639.50
2023-09-02T20:53:20.466Z,98647.88
2023-09-02T20:55:50.998Z,98648.91
2023-09-02T20:58:22.012Z,98655.06
2023-09-02T21:00:55.273Z,98639.47
2023-09-02T21:03:26.087Z,98642.50
2023-09-02T21:05:56.621Z,98640.81
2023-09-02T21:08:27.208Z,98647.63
2023-09-02T21:11:09.801Z,98648.84
2023-09-02T21:13:41.409Z,98645.91
2023-09-02T21:16:19.558Z,98649.28
2023-09-02T21:18:50.629Z,98656.38
2023-09-02T21:21:23.696Z,98652.91
2023-09-02T21:23:56.338Z,98652.91
2023-09-02T21:26:27.632Z,98664.47
2023-09-02T21:28:58.400Z,98663.06
2023-09-02T21:31:32.081Z,98662.81
2023-09-02T21:34:02.792Z,98661.69
2023-09-02T21:36:33.778Z,98673.66
2023-09-02T21:39:04.659Z,98677.63
2023-09-02T21:41:35.402Z,98681.66
2023-09-02T21:44:06.179Z,98678.66
2023-09-02T21:46:40.129Z,98671.72
2023-09-02T21:49:10.929Z,98675.16
2023-09-02T21:51:41.674Z,98678.56
2023-09-02T21:54:12.970Z,98677.38
2023-09-02T21:56:43.725Z,98680.94
2023-09-02T21:59:15.306Z,98686.91
2023-09-02T22:01:48.885Z,98685.63
2023-09-02T22:04:19.894Z,98695.34
2023-09-02T22:06:50.713Z,98693.34
2023-09-02T22:09:22.250Z,98692.19
2023-09-02T22:11:52.996Z,98686.09
2023-09-02T22:14:23.718Z,98688.31
2023-09-02T22:16:56.939Z,98684.59
2023-09-02T22:19:27.438Z,98685.59
2023-09-02T22:21:59.697Z,98680.44
2023-09-02T22:24:30.396Z,98678.44
2023-09-02T22:27:01.271Z,98675.72
2023-09-02T22:29:31.853Z,98681.13
2023-09-02T22:32:04.946Z,98678.63
2023-09-02T22:34:35.477Z,98671.69
2023-09-02T22:37:06.028Z,98674.09
2023-09-02T22:39:36.528Z,98671.13
2023-09-02T22:42:07.214Z,98665.25
2023-09-02T22:44:37.710Z,98667.41
2023-09-02T22:47:10.890Z,98673.09
2023-09-02T22:49:41.448Z,98673.16
2023-09-02T22:52:11.974Z,98678.38
2023-09-02T22:54:42.589Z,98679.00
2023-09-02T22:57:13.159Z,98688.28
2023-09-02T22:59:44.284Z,98678.03
2023-09-02T23:02:18.144Z,98686.97
2023-09-02T23:04:51.747Z,98682.44
2023-09-02T23:07:23.843Z,98683.25
2023-09-02T23:09:54.371Z,98679.66
2023-09-02T23:12:25.074Z,98682.06
2023-09-02T23:14:55.877Z,98685.47
2023-09-02T23:17:29.110Z,98681.75
2023-09-02T23:20:01.672Z,98680.16
2023-09-02T23:22:32.666Z,98689.47
2023-09-02T23:25:03.947Z,98689.09
2023-09-02T23:27:34.606Z,98690.50
2023-09-02T23:30:06.442Z,98699.00
2023-09-02T23:32:40.293Z,98694.63
2023-09-02T23:35:11.601Z,98696.78
2023-09-02T23:37:42.097Z,98701.41
2023-09-02T23:40:16.521Z,98696.84
2023-09-02T23:42:47.289Z,98701.38
2023-09-02T23:45:17.953Z,98713.44
2023-09-02T23:47:51.205Z,98706.56
2023-09-02T23:50:21.853Z,98707.91
2023-09-02T23:52:52.488Z,98703.97
2023-09-02T23:55:23.102Z,98706.56
2023-09-02T23:57:55.844Z,98702.38
